Airfield :
LOGIN :

Register | Disclaimer

   EN    FR    IT 

 










Legend :    VFR   Marginal VFR   IFR   Intensive IFR   Very Intensive IFR
Visi :
Ceiling :
>= 8 km
>= 3000ft
5 to 8 km
1000 to 3000 ft
1500m to 5 km
500 to 1000 ft
800 to 1500m
200 to 500 ft
< 800m
< 200 ft
Symbols :   Thunderstorms  Fog  Heavy snow  Heavy precipitations  Wind > 20 kt
SIGMETs :     Misc.  Thunderstorms  Icing  Turbulence  Mountain Waves  Volcanic Ashes






- Airport Elevation : 302 ft


LFPM - Melun Villaroche

CURRENT METAR :
  • 141400Z AUTO VRB02KT CAVOK 19/12 Q1022

EXPIRED METARs :
  • 141330Z AUTO 01003KT 320V090 9999 FEW026 18/11 Q1022
  • 141300Z AUTO VRB02KT CAVOK 18/12 Q1023
  • 141230Z AUTO VRB02KT 9999 FEW021 17/12 Q1023
  • 141200Z AUTO 01004KT 310V080 9999 BKN019 17/12 Q1024
  • 141130Z AUTO 35005KT 300V040 9999 SCT015 16/12 Q1024
  • 141100Z AUTO 34004KT 300V020 9999 OVC013 15/12 Q1025
  • 141030Z AUTO 35005KT 310V020 9999 OVC011 14/11 Q1025
  • 141000Z AUTO 33005KT 280V020 9999 OVC010 13/11 Q1025
  • 140930Z AUTO 35007KT 310V030 9999 OVC009 13/10 Q1025

Expired Forecast.
ATIS : +33 1 64 14 28 44



MET'MAP, your aeronautical weather chart ! - Copyright ORBIFLY December 2007 - Disclaimer

ORBIFLY MET'MAP TEAM :

Programming & Development : Alexandra Zaïnal
Original concept : Baudouin d'Aumeries
Technical & hardware support : Manuel Goepfert
Assistance : Marc-Olivier Méhu




SOURCES & CREDITS :

   NOAA